createdAt,value
2022-10-22T00:04:35.539Z,10.40
2022-10-22T00:18:35.052Z,9.40
2022-10-22T00:32:35.098Z,9.60
2022-10-22T00:46:35.078Z,9.10
2022-10-22T01:00:35.176Z,8.40
2022-10-22T01:14:35.181Z,8.20
2022-10-22T01:28:35.209Z,8.00
2022-10-22T01:42:35.264Z,7.50
2022-10-22T01:56:35.222Z,7.10
2022-10-22T02:10:35.223Z,6.90
2022-10-22T02:24:35.251Z,6.90
2022-10-22T02:38:35.292Z,7.20
2022-10-22T02:52:35.278Z,5.90
2022-10-22T03:06:35.489Z,6.40
2022-10-22T03:20:35.537Z,6.20
2022-10-22T03:34:35.602Z,5.60
2022-10-22T03:48:35.589Z,5.50
2022-10-22T04:02:35.595Z,5.30
2022-10-22T04:16:35.618Z,4.90
2022-10-22T04:30:35.639Z,5.10
2022-10-22T04:44:35.880Z,4.90
2022-10-22T04:58:35.729Z,5.20
2022-10-22T05:12:35.773Z,4.90
2022-10-22T05:26:35.759Z,5.00
2022-10-22T05:40:35.804Z,4.80
2022-10-22T05:54:35.826Z,5.90
2022-10-22T06:24:35.808Z,11.90
2022-10-22T06:39:35.832Z,12.25
2022-10-22T06:54:35.895Z,11.50
2022-10-22T07:09:35.912Z,11.55
2022-10-22T07:24:35.906Z,10.25
2022-10-22T07:39:35.930Z,9.40
2022-10-22T07:54:35.954Z,9.10
2022-10-22T08:09:35.953Z,7.90
2022-10-22T08:24:35.953Z,7.80
2022-10-22T08:39:35.958Z,7.50
2022-10-22T08:54:35.971Z,6.95
2022-10-22T09:09:35.976Z,6.40
2022-10-22T09:24:36.038Z,6.60
2022-10-22T09:39:36.030Z,5.70
2022-10-22T09:54:36.038Z,5.20
2022-10-22T10:09:36.055Z,5.10
2022-10-22T10:24:36.050Z,5.40
2022-10-22T10:39:36.217Z,5.80
2022-10-22T10:55:36.231Z,8.00
2022-10-22T11:10:36.257Z,7.20
2022-10-22T11:25:36.251Z,6.50
2022-10-22T11:40:36.272Z,6.20
2022-10-22T11:55:36.253Z,5.90
2022-10-22T12:10:36.332Z,6.40
2022-10-22T12:25:36.351Z,5.80
2022-10-22T12:40:36.388Z,5.40
2022-10-22T12:55:36.387Z,5.00
2022-10-22T13:10:36.407Z,4.90
2022-10-22T13:25:36.433Z,5.30
2022-10-22T13:40:36.399Z,4.50
2022-10-22T13:55:36.406Z,4.40
2022-10-22T14:10:36.444Z,4.10
2022-10-22T14:25:36.520Z,4.10
2022-10-22T14:41:36.909Z,3.70
2022-10-22T15:11:36.939Z,3.50
2022-10-22T15:26:36.941Z,3.50
2022-10-22T15:42:36.994Z,4.80
2022-10-22T15:57:36.939Z,4.30
2022-10-22T16:13:36.966Z,10.60
2022-10-22T16:29:36.986Z,9.60
2022-10-22T16:44:37.036Z,9.80
2022-10-22T17:00:37.114Z,10.90
2022-10-22T17:14:37.113Z,11.00
2022-10-22T17:28:37.115Z,8.90
2022-10-22T17:42:37.137Z,9.20
2022-10-22T17:56:37.168Z,8.50
2022-10-22T18:10:37.194Z,7.70
2022-10-22T18:24:37.200Z,6.80
2022-10-22T18:38:37.230Z,6.60
2022-10-22T18:52:37.246Z,5.70
2022-10-22T19:06:37.612Z,5.50
2022-10-22T19:20:37.254Z,4.80
2022-10-22T19:34:37.249Z,4.20
2022-10-22T19:48:37.305Z,3.80
2022-10-22T20:02:37.354Z,3.40
2022-10-22T20:16:37.343Z,3.50
2022-10-22T20:30:37.357Z,2.80
2022-10-22T20:44:37.365Z,2.80
2022-10-22T20:58:37.370Z,2.40
2022-10-22T21:12:37.391Z,2.20
2022-10-22T21:26:37.384Z,2.00
2022-10-22T21:40:37.383Z,1.80
2022-10-22T21:54:37.414Z,1.80
2022-10-22T22:08:37.490Z,1.60
2022-10-22T22:22:37.537Z,1.60
2022-10-22T22:36:37.525Z,1.60
2022-10-22T22:50:37.541Z,1.20
2022-10-22T23:04:37.542Z,1.30
2022-10-22T23:18:37.628Z,2.10
2022-10-22T23:32:37.582Z,1.70
2022-10-22T23:46:37.584Z,1.80
